Anthem, Arizona
Current Conditions -  °F | °C
As of 8:53 AM on Friday 31 Oct 2014 (Local Time) from KDVT Reporting Station
Clear Clear  
Wind Chill: 24°   Ceiling: Unl
Heat Index: 24°   Visibility: 10mi
Dew Point:   Wind: 0mph
Humidity: 23%   Direction: NA
Pressure: 29.94"   Gusts: NA
Location:  33.8348°N, 112.071°W
Report Text: KDVT 311553Z 00000KT 10SM CLR 24/02 A2994 RMK AO2 SLP117 T02440022
Loading
Personal Weather Stations






























Interactive Weather Map
Tropical Storm Tracking
New forecast layout! Learn more

10-Day Weather Forecast

Advertisements
Track Severe Weather on mobile